createdAt,value
2017-11-29T00:00:07.486Z,5.20
2017-11-29T00:02:33.736Z,5.20
2017-11-29T00:05:00.026Z,5.10
2017-11-29T00:07:26.272Z,5.10
2017-11-29T00:09:52.563Z,5.20
2017-11-29T00:12:19.562Z,5.10
2017-11-29T00:14:45.801Z,5.10
2017-11-29T00:17:12.067Z,5.10
2017-11-29T00:19:39.065Z,5.10
2017-11-29T00:22:05.369Z,5.10
2017-11-29T00:24:31.641Z,5.00
2017-11-29T00:26:58.019Z,5.00
2017-11-29T00:29:24.314Z,5.00
2017-11-29T00:31:50.592Z,5.00
2017-11-29T00:34:16.965Z,5.00
2017-11-29T00:36:44.046Z,5.00
2017-11-29T00:39:10.323Z,5.00
2017-11-29T00:41:36.572Z,4.90
2017-11-29T00:44:02.866Z,5.00
2017-11-29T00:46:29.083Z,4.90
2017-11-29T00:48:55.382Z,4.90
2017-11-29T00:51:22.343Z,4.80
2017-11-29T00:53:49.332Z,4.70
2017-11-29T00:56:15.640Z,4.70
2017-11-29T00:58:41.902Z,4.70
2017-11-29T01:01:08.200Z,4.60
2017-11-29T01:03:34.444Z,4.50
2017-11-29T01:06:00.771Z,4.50
2017-11-29T01:08:26.988Z,4.50
2017-11-29T01:10:53.354Z,4.50
2017-11-29T01:13:19.655Z,4.40
2017-11-29T01:15:45.915Z,4.40
2017-11-29T01:18:12.148Z,4.40
2017-11-29T01:20:38.412Z,4.50
2017-11-29T01:23:04.640Z,4.40
2017-11-29T01:25:30.902Z,4.50
2017-11-29T01:27:57.167Z,4.50
2017-11-29T01:30:24.115Z,4.50
2017-11-29T01:32:51.115Z,4.50
2017-11-29T01:35:17.365Z,4.50
2017-11-29T01:37:43.604Z,4.50
2017-11-29T01:40:09.860Z,4.50
2017-11-29T01:42:36.821Z,4.40
2017-11-29T01:45:03.076Z,4.50
2017-11-29T01:47:29.306Z,4.50
2017-11-29T01:49:55.555Z,4.40
2017-11-29T01:52:21.788Z,4.40
2017-11-29T01:54:48.107Z,4.40
2017-11-29T01:57:14.344Z,4.30
2017-11-29T01:59:40.611Z,4.20
2017-11-29T02:02:06.988Z,4.30
2017-11-29T02:04:33.287Z,4.20
2017-11-29T02:06:59.574Z,4.10
2017-11-29T02:09:25.825Z,4.10
2017-11-29T02:11:52.101Z,4.10
2017-11-29T02:14:18.340Z,4.00
2017-11-29T02:16:44.570Z,4.00
2017-11-29T02:19:10.833Z,3.90
2017-11-29T02:21:37.840Z,3.80
2017-11-29T02:24:04.108Z,3.80
2017-11-29T02:26:31.070Z,3.80
2017-11-29T02:28:57.359Z,3.70
2017-11-29T02:31:23.610Z,3.70
2017-11-29T02:33:50.623Z,3.60
2017-11-29T02:36:17.720Z,3.60
2017-11-29T02:38:43.958Z,3.60
2017-11-29T02:41:22.492Z,3.50
2017-11-29T02:43:48.760Z,3.50
2017-11-29T02:46:15.075Z,3.50
2017-11-29T02:48:41.312Z,3.50
2017-11-29T02:51:07.613Z,3.50
2017-11-29T02:53:33.873Z,3.50
2017-11-29T02:56:00.850Z,3.40
2017-11-29T02:58:27.161Z,3.40
2017-11-29T03:00:54.240Z,3.30
2017-11-29T03:03:20.497Z,3.30
2017-11-29T03:05:46.737Z,3.30
2017-11-29T03:08:12.992Z,3.30
2017-11-29T03:10:40.021Z,3.30
2017-11-29T03:13:06.415Z,3.30
2017-11-29T03:15:32.637Z,3.30
2017-11-29T03:17:58.859Z,3.30
2017-11-29T03:20:25.106Z,3.20
2017-11-29T03:22:51.355Z,3.20
2017-11-29T03:25:17.675Z,3.20
2017-11-29T03:27:43.920Z,3.10
2017-11-29T03:30:10.186Z,3.10
2017-11-29T03:32:36.427Z,3.10
2017-11-29T03:35:02.810Z,3.10
2017-11-29T03:37:29.150Z,3.00
2017-11-29T03:39:56.140Z,3.00
2017-11-29T03:42:22.363Z,3.00
2017-11-29T03:44:48.597Z,3.00
2017-11-29T03:47:14.840Z,2.90
2017-11-29T03:49:41.068Z,2.90
2017-11-29T03:52:07.313Z,2.90
2017-11-29T03:54:33.652Z,2.90
2017-11-29T03:57:00.677Z,2.80
2017-11-29T03:59:26.905Z,2.80
2017-11-29T04:01:53.164Z,2.80
2017-11-29T04:04:19.392Z,2.80
2017-11-29T04:06:46.388Z,2.80
2017-11-29T04:09:12.671Z,2.80
2017-11-29T04:11:39.669Z,2.70
2017-11-29T04:14:05.990Z,2.70
2017-11-29T04:16:32.247Z,2.70
2017-11-29T04:18:58.473Z,2.70
2017-11-29T04:21:24.804Z,2.70
2017-11-29T04:23:51.107Z,2.70
2017-11-29T04:26:17.375Z,2.70
2017-11-29T04:28:43.707Z,2.60
2017-11-29T04:31:10.767Z,2.60
2017-11-29T04:33:37.032Z,2.60
2017-11-29T04:36:03.263Z,2.60
2017-11-29T04:38:29.511Z,2.50
2017-11-29T04:40:55.824Z,2.50
2017-11-29T04:43:22.089Z,2.60
2017-11-29T04:45:48.333Z,2.50
2017-11-29T04:48:15.355Z,2.50
2017-11-29T04:50:41.597Z,2.50
2017-11-29T04:53:07.832Z,2.50
2017-11-29T04:55:34.895Z,2.50
2017-11-29T04:58:01.228Z,2.40
2017-11-29T05:00:28.308Z,2.50
2017-11-29T05:02:54.592Z,2.40
2017-11-29T05:05:20.882Z,2.40
2017-11-29T05:07:47.149Z,2.40
2017-11-29T05:10:14.163Z,2.30
2017-11-29T05:12:40.567Z,2.30
2017-11-29T05:15:07.793Z,2.30
2017-11-29T05:17:34.272Z,2.30
2017-11-29T05:20:00.704Z,2.30
2017-11-29T05:22:27.556Z,2.30
2017-11-29T05:24:53.792Z,2.30
2017-11-29T05:27:20.098Z,2.30
2017-11-29T05:29:46.389Z,2.20
2017-11-29T05:32:13.398Z,2.20
2017-11-29T05:34:39.636Z,2.20
2017-11-29T05:37:06.644Z,2.20
2017-11-29T05:39:32.910Z,2.10
2017-11-29T05:41:59.267Z,2.20
2017-11-29T05:44:26.242Z,2.20
2017-11-29T05:46:52.472Z,2.10
2017-11-29T05:49:18.784Z,2.10
2017-11-29T05:51:45.032Z,2.10
2017-11-29T05:54:11.300Z,2.00
2017-11-29T05:56:37.557Z,2.00
2017-11-29T05:59:03.821Z,2.00
2017-11-29T06:01:30.288Z,2.00
2017-11-29T06:03:56.600Z,2.00
2017-11-29T06:06:22.870Z,2.00
2017-11-29T06:08:49.870Z,2.00
2017-11-29T06:11:16.165Z,2.00
2017-11-29T06:13:42.556Z,2.00
2017-11-29T06:16:09.118Z,1.90
2017-11-29T06:18:35.463Z,1.90
2017-11-29T06:21:01.828Z,2.00
2017-11-29T06:23:28.339Z,1.90
2017-11-29T06:25:54.799Z,1.90
2017-11-29T06:28:21.888Z,1.90
2017-11-29T06:30:48.993Z,1.90
2017-11-29T06:33:16.776Z,1.90
2017-11-29T06:35:43.113Z,1.90
2017-11-29T06:38:09.489Z,1.90
2017-11-29T06:40:35.817Z,1.80
2017-11-29T06:43:02.164Z,1.90
2017-11-29T06:45:28.545Z,1.90
2017-11-29T06:47:54.884Z,1.90
2017-11-29T06:50:21.921Z,1.90
2017-11-29T06:52:48.968Z,1.90
2017-11-29T06:55:15.239Z,1.90
2017-11-29T06:57:41.551Z,1.90
2017-11-29T07:00:07.843Z,2.00
2017-11-29T07:02:34.944Z,2.10
2017-11-29T07:05:01.354Z,2.00
2017-11-29T07:07:27.869Z,2.10
2017-11-29T07:09:54.866Z,2.00
2017-11-29T07:12:21.150Z,2.00
2017-11-29T07:14:48.124Z,2.00
2017-11-29T07:17:22.274Z,2.00
2017-11-29T07:19:48.588Z,2.00
2017-11-29T07:22:14.873Z,2.00
2017-11-29T07:24:41.895Z,2.10
2017-11-29T07:27:08.166Z,2.00
2017-11-29T07:29:34.384Z,2.10
2017-11-29T07:32:00.627Z,2.20
2017-11-29T07:34:26.952Z,2.20
2017-11-29T07:36:53.222Z,2.20
2017-11-29T07:39:19.485Z,2.20
2017-11-29T07:41:46.683Z,2.30
2017-11-29T07:44:12.940Z,2.30
2017-11-29T07:46:39.196Z,2.30
2017-11-29T07:49:06.217Z,2.30
2017-11-29T07:51:32.507Z,2.30
2017-11-29T07:53:58.795Z,2.50
2017-11-29T07:56:25.775Z,2.50
2017-11-29T07:58:52.073Z,2.40
2017-11-29T08:01:19.059Z,2.40
2017-11-29T08:03:45.351Z,2.40
2017-11-29T08:06:12.372Z,2.40
2017-11-29T08:08:38.604Z,2.30
2017-11-29T08:11:04.968Z,2.40
2017-11-29T08:13:31.221Z,2.30
2017-11-29T08:15:57.600Z,2.40
2017-11-29T08:18:23.909Z,2.40
2017-11-29T08:20:50.192Z,2.40
2017-11-29T08:23:16.452Z,2.40
2017-11-29T08:25:42.721Z,2.40
2017-11-29T08:28:09.786Z,2.40
2017-11-29T08:30:36.101Z,2.40
2017-11-29T08:33:02.531Z,2.40
2017-11-29T08:35:28.841Z,2.40
2017-11-29T08:37:55.105Z,2.50
2017-11-29T08:40:22.153Z,2.60
2017-11-29T08:42:48.419Z,2.50
2017-11-29T08:45:14.734Z,2.60
2017-11-29T08:47:40.987Z,2.60
2017-11-29T08:50:07.327Z,2.60
2017-11-29T08:52:33.738Z,2.60
2017-11-29T08:55:00.156Z,2.60
2017-11-29T08:57:26.719Z,2.70
2017-11-29T08:59:53.025Z,2.70
2017-11-29T09:02:19.337Z,2.70
2017-11-29T09:04:45.632Z,2.80
2017-11-29T09:07:11.927Z,2.80
2017-11-29T09:09:38.353Z,2.80
2017-11-29T09:12:04.722Z,2.90
2017-11-29T09:14:31.750Z,2.90
2017-11-29T09:16:58.024Z,2.90
2017-11-29T09:19:25.088Z,2.90
2017-11-29T09:21:51.578Z,2.90
2017-11-29T09:24:17.956Z,2.90
2017-11-29T09:26:44.249Z,3.00
2017-11-29T09:29:11.272Z,3.00
2017-11-29T09:31:37.583Z,3.00
2017-11-29T09:34:04.622Z,3.20
2017-11-29T09:36:30.912Z,3.20
2017-11-29T09:39:00.952Z,3.20
2017-11-29T09:41:27.311Z,3.20
2017-11-29T09:43:53.692Z,3.30
2017-11-29T09:46:20.008Z,3.30
2017-11-29T09:48:46.253Z,3.30
2017-11-29T09:51:13.256Z,3.40
2017-11-29T09:53:39.609Z,3.30
2017-11-29T09:56:05.885Z,3.40
2017-11-29T09:58:32.107Z,3.40
2017-11-29T10:00:58.417Z,3.50
2017-11-29T10:03:24.684Z,3.50
2017-11-29T10:05:50.900Z,3.50
2017-11-29T10:08:17.172Z,3.60
2017-11-29T10:10:43.411Z,3.60
2017-11-29T10:13:09.794Z,3.70
2017-11-29T10:15:36.084Z,3.80
2017-11-29T10:18:03.145Z,3.80
2017-11-29T10:20:29.391Z,3.80
2017-11-29T10:22:55.659Z,3.90
2017-11-29T10:25:22.053Z,4.00
2017-11-29T10:27:48.311Z,4.20
2017-11-29T10:30:15.432Z,5.00
2017-11-29T10:32:41.686Z,5.90
2017-11-29T10:35:08.056Z,6.60
2017-11-29T10:37:34.415Z,7.90
2017-11-29T10:40:00.768Z,9.20
2017-11-29T10:42:27.084Z,10.20
2017-11-29T10:44:53.377Z,11.40
2017-11-29T10:47:20.428Z,11.60
2017-11-29T10:49:46.807Z,11.60
2017-11-29T10:52:13.203Z,11.10
2017-11-29T10:54:39.529Z,10.70
2017-11-29T10:57:05.857Z,10.10
2017-11-29T10:59:32.917Z,9.50
2017-11-29T11:01:59.208Z,9.50
2017-11-29T11:04:25.516Z,9.50
2017-11-29T11:06:51.863Z,9.80
2017-11-29T11:09:19.014Z,10.30
2017-11-29T11:11:45.364Z,10.20
2017-11-29T11:14:11.793Z,10.20
2017-11-29T11:16:39.019Z,8.30
2017-11-29T11:19:05.335Z,8.30
2017-11-29T11:21:31.732Z,8.10
2017-11-29T11:23:58.038Z,7.90
2017-11-29T11:26:25.307Z,6.60
2017-11-29T11:28:51.626Z,6.60
2017-11-29T11:31:18.108Z,6.10
2017-11-29T11:33:44.503Z,5.70
2017-11-29T11:36:10.856Z,5.60
2017-11-29T11:38:37.292Z,5.40
2017-11-29T11:41:03.654Z,5.40
2017-11-29T11:43:30.824Z,5.40
2017-11-29T11:45:57.273Z,5.40
2017-11-29T11:48:23.600Z,5.40
2017-11-29T11:50:49.844Z,5.40
2017-11-29T11:53:16.199Z,5.30
2017-11-29T11:55:42.539Z,5.30
2017-11-29T11:58:08.822Z,5.30
2017-11-29T12:00:35.140Z,5.40
2017-11-29T12:03:02.200Z,5.50
2017-11-29T12:05:29.190Z,5.40
2017-11-29T12:07:55.481Z,5.40
2017-11-29T12:10:21.801Z,5.40
2017-11-29T12:12:48.791Z,5.40
2017-11-29T12:15:15.125Z,5.40
2017-11-29T12:17:41.571Z,5.50
2017-11-29T12:20:08.594Z,5.50
2017-11-29T12:22:34.887Z,5.50
2017-11-29T12:25:01.184Z,5.60
2017-11-29T12:27:27.717Z,5.50
2017-11-29T12:29:54.723Z,5.60
2017-11-29T12:32:21.184Z,5.60
2017-11-29T12:34:47.472Z,5.60
2017-11-29T12:37:13.914Z,5.50
2017-11-29T12:39:40.160Z,5.50
2017-11-29T12:42:06.408Z,5.60
2017-11-29T12:44:32.684Z,5.60
2017-11-29T12:46:58.953Z,5.60
2017-11-29T12:49:37.699Z,5.60
2017-11-29T12:52:04.828Z,5.60
2017-11-29T12:54:31.171Z,5.60
2017-11-29T12:56:57.411Z,5.60
2017-11-29T12:59:24.426Z,5.70
2017-11-29T13:01:50.861Z,5.60
2017-11-29T13:04:17.401Z,5.70
2017-11-29T13:06:44.597Z,5.70
2017-11-29T13:09:11.005Z,5.70
2017-11-29T13:11:37.444Z,5.70
2017-11-29T13:14:04.528Z,5.70
2017-11-29T13:16:30.917Z,5.70
2017-11-29T13:18:57.425Z,5.80
2017-11-29T13:21:23.809Z,5.80
2017-11-29T13:23:50.109Z,5.70
2017-11-29T13:26:17.172Z,5.60
2017-11-29T13:28:44.233Z,5.60
2017-11-29T13:31:10.539Z,5.60
2017-11-29T13:33:37.632Z,5.60
2017-11-29T13:36:03.989Z,5.60
2017-11-29T13:38:30.648Z,5.50
2017-11-29T13:40:57.002Z,5.60
2017-11-29T13:43:24.013Z,5.60
2017-11-29T13:45:50.367Z,5.60
2017-11-29T13:48:16.675Z,5.60
2017-11-29T13:50:42.913Z,5.60
2017-11-29T13:53:09.255Z,5.60
2017-11-29T13:55:35.657Z,5.60
2017-11-29T13:58:02.075Z,5.50
2017-11-29T14:00:28.375Z,5.50
2017-11-29T14:02:55.104Z,5.40
2017-11-29T14:05:21.405Z,5.40
2017-11-29T14:07:48.578Z,5.30
2017-11-29T14:10:15.659Z,5.30
2017-11-29T14:12:41.987Z,5.30
2017-11-29T14:15:08.295Z,5.20
2017-11-29T14:17:34.694Z,5.10
2017-11-29T14:20:01.102Z,5.10
2017-11-29T14:22:27.352Z,5.00
2017-11-29T14:24:53.633Z,4.90
2017-11-29T14:27:20.080Z,4.80
2017-11-29T14:29:46.357Z,4.80
2017-11-29T14:32:13.357Z,4.70
2017-11-29T14:34:39.653Z,4.70
2017-11-29T14:37:05.953Z,4.70
2017-11-29T14:39:32.966Z,4.60
2017-11-29T14:41:59.263Z,4.60
2017-11-29T14:44:25.633Z,4.50
2017-11-29T14:46:52.704Z,4.40
2017-11-29T14:49:19.792Z,4.50
2017-11-29T14:51:46.129Z,4.40
2017-11-29T14:54:12.404Z,4.40
2017-11-29T14:56:39.597Z,4.30
2017-11-29T14:59:05.901Z,4.30
2017-11-29T15:01:33.013Z,4.30
2017-11-29T15:04:00.304Z,4.30
2017-11-29T15:06:26.962Z,4.30
2017-11-29T15:08:53.198Z,4.30
2017-11-29T15:11:19.474Z,4.20
2017-11-29T15:13:45.701Z,4.20
2017-11-29T15:16:12.010Z,4.20
2017-11-29T15:18:38.232Z,4.10
2017-11-29T15:21:04.471Z,4.10
2017-11-29T15:23:35.011Z,4.10
2017-11-29T15:26:02.158Z,4.00
2017-11-29T15:28:28.617Z,3.90
2017-11-29T15:30:54.973Z,3.90
2017-11-29T15:33:21.527Z,3.90
2017-11-29T15:35:48.173Z,3.80
2017-11-29T15:38:14.528Z,3.90
2017-11-29T15:40:40.896Z,3.80
2017-11-29T15:43:07.916Z,3.70
2017-11-29T15:45:34.276Z,3.60
2017-11-29T15:48:00.651Z,3.60
2017-11-29T15:50:26.965Z,3.60
2017-11-29T15:52:53.937Z,3.50
2017-11-29T15:55:21.144Z,3.40
2017-11-29T15:57:47.626Z,3.40
2017-11-29T16:00:14.079Z,3.40
2017-11-29T16:02:40.478Z,3.40
2017-11-29T16:05:06.768Z,3.40
2017-11-29T16:07:33.063Z,3.40
2017-11-29T16:09:59.350Z,3.40
2017-11-29T16:12:25.683Z,3.40
2017-11-29T16:14:51.932Z,3.40
2017-11-29T16:17:18.279Z,3.40
2017-11-29T16:19:45.376Z,3.40
2017-11-29T16:22:11.655Z,3.40
2017-11-29T16:24:38.884Z,3.40
2017-11-29T16:27:05.168Z,3.40
2017-11-29T16:29:31.651Z,3.50
2017-11-29T16:31:58.054Z,3.60
2017-11-29T16:34:26.042Z,3.60
2017-11-29T16:36:52.352Z,3.70
2017-11-29T16:39:18.961Z,3.60
2017-11-29T16:41:45.328Z,3.60
2017-11-29T16:44:13.144Z,3.60
2017-11-29T16:46:39.471Z,3.60
2017-11-29T16:49:07.624Z,3.60
2017-11-29T16:51:34.092Z,3.60
2017-11-29T16:54:01.590Z,3.60
2017-11-29T16:56:28.926Z,3.60
2017-11-29T16:58:55.379Z,3.50
2017-11-29T17:01:22.072Z,3.60
2017-11-29T17:03:48.784Z,3.50
2017-11-29T17:06:15.279Z,3.50
2017-11-29T17:08:42.061Z,3.50
2017-11-29T17:11:08.900Z,3.50
2017-11-29T17:13:36.030Z,3.50
2017-11-29T17:16:02.411Z,3.50
2017-11-29T17:18:28.773Z,3.50
2017-11-29T17:20:55.132Z,3.40
2017-11-29T17:23:22.167Z,3.40
2017-11-29T17:25:48.500Z,3.40
2017-11-29T17:28:14.833Z,3.40
2017-11-29T17:30:41.125Z,3.40
2017-11-29T17:33:07.477Z,3.40
2017-11-29T17:35:33.729Z,3.50
2017-11-29T17:38:00.015Z,3.40
2017-11-29T17:40:26.260Z,3.30
2017-11-29T17:42:52.657Z,3.40
2017-11-29T17:45:20.632Z,3.30
2017-11-29T17:47:47.145Z,3.40
2017-11-29T17:50:13.484Z,3.40
2017-11-29T17:52:40.611Z,3.30
2017-11-29T17:55:07.023Z,3.30
2017-11-29T17:57:33.358Z,3.30
2017-11-29T17:59:59.709Z,3.30
2017-11-29T18:02:26.856Z,3.30
2017-11-29T18:04:53.259Z,3.30
2017-11-29T18:07:19.572Z,3.30
2017-11-29T18:09:45.986Z,3.30
2017-11-29T18:12:12.652Z,3.30
2017-11-29T18:14:38.970Z,3.30
2017-11-29T18:17:05.456Z,3.30
2017-11-29T18:19:31.917Z,3.30
2017-11-29T18:21:58.309Z,3.30
2017-11-29T18:24:24.571Z,3.30
2017-11-29T18:26:51.574Z,3.20
2017-11-29T18:29:18.770Z,3.20
2017-11-29T18:31:45.312Z,3.20
2017-11-29T18:34:11.732Z,3.20
2017-11-29T18:36:38.727Z,3.10
2017-11-29T18:39:05.352Z,3.10
2017-11-29T18:41:32.053Z,3.20
2017-11-29T18:43:58.518Z,3.20
2017-11-29T18:46:24.830Z,3.10
2017-11-29T18:48:51.145Z,3.10
2017-11-29T18:51:18.510Z,3.10
2017-11-29T18:53:44.836Z,3.10
2017-11-29T18:56:11.172Z,3.10
2017-11-29T18:58:37.504Z,3.20
2017-11-29T19:01:03.807Z,3.20
2017-11-29T19:03:30.068Z,3.20
2017-11-29T19:05:56.374Z,3.10
2017-11-29T19:08:24.083Z,3.10
2017-11-29T19:10:50.354Z,3.10
2017-11-29T19:13:16.693Z,3.10
2017-11-29T19:15:42.989Z,3.10
2017-11-29T19:18:09.349Z,3.10
2017-11-29T19:20:36.393Z,3.00
2017-11-29T19:23:02.656Z,3.00
2017-11-29T19:25:28.920Z,3.00
2017-11-29T19:27:55.227Z,3.00
2017-11-29T19:30:21.599Z,3.00
2017-11-29T19:32:48.060Z,2.90
2017-11-29T19:35:15.120Z,3.00
2017-11-29T19:37:41.420Z,2.90
2017-11-29T19:40:08.476Z,2.90
2017-11-29T19:42:34.832Z,2.90
2017-11-29T19:45:01.141Z,3.00
2017-11-29T19:47:28.123Z,3.00
2017-11-29T19:49:54.409Z,3.00
2017-11-29T19:52:21.416Z,2.90
2017-11-29T19:54:55.049Z,3.00
2017-11-29T19:57:22.095Z,3.00
2017-11-29T19:59:48.414Z,3.00
2017-11-29T20:02:14.715Z,3.00
2017-11-29T20:04:40.984Z,3.00
2017-11-29T20:07:07.235Z,3.00
2017-11-29T20:09:35.516Z,2.90
2017-11-29T20:12:01.782Z,2.90
2017-11-29T20:14:28.029Z,2.90
2017-11-29T20:16:54.370Z,2.80
2017-11-29T20:19:20.854Z,2.80
2017-11-29T20:21:47.146Z,2.80
2017-11-29T20:24:14.191Z,2.80
2017-11-29T20:26:40.411Z,2.80
2017-11-29T20:29:06.633Z,2.90
2017-11-29T20:31:33.703Z,2.80
2017-11-29T20:34:00.698Z,2.80
2017-11-29T20:36:26.972Z,2.80
2017-11-29T20:38:54.111Z,2.80
2017-11-29T20:41:20.427Z,2.70
2017-11-29T20:43:46.852Z,2.70
2017-11-29T20:46:13.849Z,2.70
2017-11-29T20:48:40.075Z,2.70
2017-11-29T20:51:06.524Z,2.70
2017-11-29T20:53:33.607Z,2.80
2017-11-29T20:56:00.303Z,2.80
2017-11-29T20:58:26.668Z,2.80
2017-11-29T21:00:53.888Z,2.80
2017-11-29T21:03:20.364Z,2.80
2017-11-29T21:05:47.436Z,2.80
2017-11-29T21:08:14.825Z,2.80
2017-11-29T21:10:41.054Z,2.80
2017-11-29T21:13:07.550Z,2.80
2017-11-29T21:15:34.639Z,2.80
2017-11-29T21:18:01.120Z,2.80
2017-11-29T21:20:27.358Z,2.90
2017-11-29T21:22:54.563Z,2.90
2017-11-29T21:25:20.836Z,2.90
2017-11-29T21:27:47.298Z,2.90
2017-11-29T21:30:14.304Z,3.00
2017-11-29T21:32:40.606Z,3.00
2017-11-29T21:35:07.685Z,3.00
2017-11-29T21:37:34.712Z,3.00
2017-11-29T21:40:01.210Z,3.00
2017-11-29T21:42:27.500Z,3.10
2017-11-29T21:44:54.516Z,3.10
2017-11-29T21:47:20.824Z,3.10
2017-11-29T21:49:47.075Z,3.10
2017-11-29T21:52:13.345Z,3.10
2017-11-29T21:54:39.688Z,3.10
2017-11-29T21:57:05.996Z,3.10
2017-11-29T21:59:33.056Z,3.10
2017-11-29T22:01:59.426Z,3.00
2017-11-29T22:04:25.765Z,3.10
2017-11-29T22:06:52.046Z,3.10
2017-11-29T22:09:19.120Z,3.10
2017-11-29T22:11:45.433Z,3.10
2017-11-29T22:14:12.018Z,3.20
2017-11-29T22:16:39.112Z,3.20
2017-11-29T22:19:05.491Z,3.10
2017-11-29T22:21:32.535Z,3.20
2017-11-29T22:23:58.852Z,3.20
2017-11-29T22:26:25.148Z,3.20
2017-11-29T22:28:51.447Z,3.20
2017-11-29T22:31:17.724Z,3.10
2017-11-29T22:33:44.093Z,3.10
2017-11-29T22:36:10.338Z,3.10
2017-11-29T22:38:37.408Z,3.20
2017-11-29T22:41:03.711Z,3.10
2017-11-29T22:43:30.038Z,3.10
2017-11-29T22:45:56.357Z,3.10
2017-11-29T22:48:22.687Z,3.10
2017-11-29T22:50:49.046Z,3.10
2017-11-29T22:53:16.219Z,3.10
2017-11-29T22:55:42.577Z,3.10
2017-11-29T22:58:08.990Z,3.10
2017-11-29T23:00:35.291Z,3.10
2017-11-29T23:03:01.836Z,3.10
2017-11-29T23:05:28.819Z,3.00
2017-11-29T23:07:56.000Z,3.00
2017-11-29T23:10:23.020Z,3.00
2017-11-29T23:12:49.268Z,3.00
2017-11-29T23:15:15.506Z,3.00
2017-11-29T23:17:41.748Z,2.90
2017-11-29T23:20:08.754Z,2.80
2017-11-29T23:22:35.028Z,2.90
2017-11-29T23:25:02.036Z,2.80
2017-11-29T23:27:28.295Z,2.80
2017-11-29T23:29:55.363Z,2.80
2017-11-29T23:32:22.370Z,2.90
2017-11-29T23:34:48.680Z,2.80
2017-11-29T23:37:14.972Z,2.80
2017-11-29T23:39:41.238Z,2.90
2017-11-29T23:42:07.532Z,2.90
2017-11-29T23:44:33.789Z,2.90
2017-11-29T23:47:00.043Z,2.90
2017-11-29T23:49:26.328Z,2.90
2017-11-29T23:51:52.611Z,2.90
2017-11-29T23:54:18.872Z,2.90
2017-11-29T23:56:45.153Z,2.90
2017-11-29T23:59:11.581Z,2.90
